createdAt,value
2017-01-29T00:00:15.548Z,1040.38
2017-01-29T00:01:15.530Z,1040.36
2017-01-29T00:02:15.512Z,1040.37
2017-01-29T00:03:15.494Z,1040.33
2017-01-29T00:04:15.476Z,1040.34
2017-01-29T00:05:15.458Z,1040.32
2017-01-29T00:06:15.440Z,1040.33
2017-01-29T00:07:15.423Z,1040.37
2017-01-29T00:08:15.404Z,1040.34
2017-01-29T00:09:15.386Z,1040.3
2017-01-29T00:10:15.369Z,1040.34
2017-01-29T00:11:15.352Z,1040.37
2017-01-29T00:12:15.337Z,1040.32
2017-01-29T00:13:15.315Z,1040.33
2017-01-29T00:14:15.296Z,1040.37
2017-01-29T00:15:15.277Z,1040.38
2017-01-29T00:16:15.261Z,1040.4
2017-01-29T00:17:15.243Z,1040.4
2017-01-29T00:18:15.226Z,1040.41
2017-01-29T00:19:15.207Z,1040.38
2017-01-29T00:20:15.189Z,1040.4
2017-01-29T00:21:15.172Z,1040.41
2017-01-29T00:22:15.155Z,1040.44
2017-01-29T00:23:15.134Z,1040.44
2017-01-29T00:24:15.118Z,1040.43
2017-01-29T00:25:15.100Z,1040.42
2017-01-29T00:26:15.082Z,1040.44
2017-01-29T00:27:15.064Z,1040.45
2017-01-29T00:28:15.048Z,1040.43
2017-01-29T00:29:15.028Z,1040.48
2017-01-29T00:30:15.010Z,1040.48
2017-01-29T00:31:14.992Z,1040.49
2017-01-29T00:32:14.977Z,1040.48
2017-01-29T00:33:14.958Z,1040.45
2017-01-29T00:34:14.940Z,1040.45
2017-01-29T00:35:14.920Z,1040.48
2017-01-29T00:36:14.903Z,1040.5
2017-01-29T00:37:14.884Z,1040.47
2017-01-29T00:38:14.866Z,1040.47
2017-01-29T00:39:14.848Z,1040.47
2017-01-29T00:40:14.831Z,1040.48
2017-01-29T00:41:14.812Z,1040.49
2017-01-29T00:42:14.797Z,1040.47
2017-01-29T00:43:14.776Z,1040.46
2017-01-29T00:44:14.764Z,1040.45
2017-01-29T00:45:14.740Z,1040.48
2017-01-29T00:46:14.723Z,1040.45
2017-01-29T00:47:14.705Z,1040.46
2017-01-29T00:48:14.686Z,1040.47
2017-01-29T00:49:14.673Z,1040.48
2017-01-29T00:50:14.651Z,1040.47
2017-01-29T00:51:14.632Z,1040.44
2017-01-29T00:52:14.614Z,1040.45
2017-01-29T00:53:14.596Z,1040.44
2017-01-29T00:54:14.579Z,1040.4
2017-01-29T00:55:14.563Z,1040.41
2017-01-29T00:56:14.542Z,1040.4
2017-01-29T00:57:14.524Z,1040.38
2017-01-29T00:58:14.509Z,1040.39
2017-01-29T00:59:14.488Z,1040.4
2017-01-29T01:00:14.471Z,1040.39
2017-01-29T01:01:14.453Z,1040.43
2017-01-29T01:02:14.434Z,1040.41
2017-01-29T01:03:14.417Z,1040.42
2017-01-29T01:04:14.399Z,1040.36
2017-01-29T01:05:14.381Z,1040.37
2017-01-29T01:06:14.363Z,1040.4
2017-01-29T01:07:14.345Z,1040.39
2017-01-29T01:08:14.328Z,1040.42
2017-01-29T01:09:14.312Z,1040.4
2017-01-29T01:10:14.313Z,1040.36
2017-01-29T01:11:14.275Z,1040.36
2017-01-29T01:12:14.256Z,1040.36
2017-01-29T01:13:14.239Z,1040.35
2017-01-29T01:14:14.221Z,1040.32
2017-01-29T01:15:14.200Z,1040.34
2017-01-29T01:16:14.187Z,1040.31
2017-01-29T01:17:14.166Z,1040.32
2017-01-29T01:18:14.151Z,1040.31
2017-01-29T01:19:14.131Z,1040.28
2017-01-29T01:20:14.113Z,1040.32
2017-01-29T01:21:14.095Z,1040.35
2017-01-29T01:22:14.076Z,1040.29
2017-01-29T01:23:14.059Z,1040.32
2017-01-29T01:24:14.040Z,1040.34
2017-01-29T01:25:14.022Z,1040.35
2017-01-29T01:26:14.005Z,1040.36
2017-01-29T01:27:13.988Z,1040.35
2017-01-29T01:28:13.969Z,1040.34
2017-01-29T01:29:13.951Z,1040.36
2017-01-29T01:30:13.933Z,1040.38
2017-01-29T01:31:13.916Z,1040.4
2017-01-29T01:32:13.898Z,1040.39
2017-01-29T01:33:13.880Z,1040.39
2017-01-29T01:34:13.862Z,1040.41
2017-01-29T01:35:13.848Z,1040.4
2017-01-29T01:36:13.826Z,1040.42
2017-01-29T01:37:13.809Z,1040.43
2017-01-29T01:38:13.792Z,1040.41
2017-01-29T01:39:13.773Z,1040.44
2017-01-29T01:40:13.754Z,1040.45
2017-01-29T01:41:13.737Z,1040.43
2017-01-29T01:42:13.719Z,1040.45
2017-01-29T01:43:13.701Z,1040.44
2017-01-29T01:44:13.682Z,1040.48
2017-01-29T01:45:13.667Z,1040.47
2017-01-29T01:46:13.649Z,1040.48
2017-01-29T01:47:13.630Z,1040.45
2017-01-29T01:48:13.611Z,1040.49
2017-01-29T01:49:13.594Z,1040.49
2017-01-29T01:50:13.576Z,1040.51
2017-01-29T01:51:13.558Z,1040.49
2017-01-29T01:52:13.542Z,1040.53
2017-01-29T01:53:13.525Z,1040.49
2017-01-29T01:54:13.504Z,1040.5
2017-01-29T01:55:13.487Z,1040.48
2017-01-29T01:56:13.471Z,1040.45
2017-01-29T01:57:13.452Z,1040.48
2017-01-29T01:58:13.435Z,1040.48
2017-01-29T01:59:13.417Z,1040.45
2017-01-29T02:00:13.400Z,1040.47
2017-01-29T02:01:13.385Z,1040.48
2017-01-29T02:02:13.362Z,1040.47
2017-01-29T02:03:13.346Z,1040.48
2017-01-29T02:04:13.328Z,1040.46
2017-01-29T02:05:13.310Z,1040.46
2017-01-29T02:06:13.293Z,1040.46
2017-01-29T02:07:13.275Z,1040.44
2017-01-29T02:08:13.259Z,1040.44
2017-01-29T02:09:13.240Z,1040.42
2017-01-29T02:10:13.222Z,1040.44
2017-01-29T02:11:13.205Z,1040.4
2017-01-29T02:12:13.186Z,1040.32
2017-01-29T02:13:13.174Z,1040.27
2017-01-29T02:14:13.152Z,1040.34
2017-01-29T02:15:13.134Z,1040.34
2017-01-29T02:16:13.117Z,1040.4
2017-01-29T02:17:13.100Z,1040.44
2017-01-29T02:18:13.085Z,1040.41
2017-01-29T02:19:13.063Z,1040.43
2017-01-29T02:20:13.046Z,1040.47
2017-01-29T02:21:13.031Z,1040.4
2017-01-29T02:22:13.018Z,1040.36
2017-01-29T02:23:12.996Z,1040.39
2017-01-29T02:24:12.979Z,1040.41
2017-01-29T02:25:12.960Z,1040.36
2017-01-29T02:26:12.941Z,1040.41
2017-01-29T02:27:12.920Z,1040.41
2017-01-29T02:28:12.904Z,1040.42
2017-01-29T02:29:12.891Z,1040.45
2017-01-29T02:30:12.868Z,1040.43
2017-01-29T02:31:12.848Z,1040.41
2017-01-29T02:32:12.834Z,1040.37
2017-01-29T02:33:12.814Z,1040.41
2017-01-29T02:34:12.795Z,1040.43
2017-01-29T02:35:12.778Z,1040.42
2017-01-29T02:36:12.760Z,1040.42
2017-01-29T02:37:12.742Z,1040.44
2017-01-29T02:38:12.723Z,1040.45
2017-01-29T02:39:12.707Z,1040.48
2017-01-29T02:40:12.689Z,1040.45
2017-01-29T02:41:12.671Z,1040.48
2017-01-29T02:42:12.654Z,1040.46
2017-01-29T02:43:12.637Z,1040.47
2017-01-29T02:44:12.619Z,1040.45
2017-01-29T02:45:12.601Z,1040.46
2017-01-29T02:46:12.588Z,1040.48
2017-01-29T02:47:12.566Z,1040.46
2017-01-29T02:48:12.548Z,1040.5
2017-01-29T02:49:12.530Z,1040.48
2017-01-29T02:50:12.516Z,1040.48
2017-01-29T02:51:12.495Z,1040.47
2017-01-29T02:52:12.477Z,1040.47
2017-01-29T02:53:12.459Z,1040.49
2017-01-29T02:54:12.442Z,1040.46
2017-01-29T02:55:12.424Z,1040.51
2017-01-29T02:56:12.405Z,1040.45
2017-01-29T02:57:12.388Z,1040.52
2017-01-29T02:58:12.370Z,1040.46
2017-01-29T02:59:12.351Z,1040.45
2017-01-29T03:00:12.335Z,1040.45
2017-01-29T03:01:12.317Z,1040.49
2017-01-29T03:02:12.300Z,1040.52
2017-01-29T03:03:12.289Z,1040.52
2017-01-29T03:04:12.264Z,1040.46
2017-01-29T03:05:12.245Z,1040.5
2017-01-29T03:06:12.229Z,1040.43
2017-01-29T03:07:12.211Z,1040.49
2017-01-29T03:08:12.192Z,1040.47
2017-01-29T03:09:12.176Z,1040.47
2017-01-29T03:10:12.158Z,1040.52
2017-01-29T03:11:12.140Z,1040.5
2017-01-29T03:12:12.120Z,1040.52
2017-01-29T03:13:12.107Z,1040.51
2017-01-29T03:14:12.087Z,1040.59
2017-01-29T03:15:12.068Z,1040.56
2017-01-29T03:16:12.051Z,1040.57
2017-01-29T03:17:12.033Z,1040.57
2017-01-29T03:18:12.015Z,1040.59
2017-01-29T03:19:11.997Z,1040.59
2017-01-29T03:20:11.980Z,1040.58
2017-01-29T03:21:11.963Z,1040.59
2017-01-29T03:22:11.943Z,1040.59
2017-01-29T03:23:11.938Z,1040.6
2017-01-29T03:24:11.909Z,1040.61
2017-01-29T03:25:11.891Z,1040.64
2017-01-29T03:26:11.873Z,1040.64
2017-01-29T03:27:11.855Z,1040.66
2017-01-29T03:28:11.837Z,1040.63
2017-01-29T03:29:11.819Z,1040.62
2017-01-29T03:30:11.802Z,1040.64
2017-01-29T03:31:11.785Z,1040.62
2017-01-29T03:32:11.766Z,1040.63
2017-01-29T03:33:11.747Z,1040.64
2017-01-29T03:34:11.730Z,1040.69
2017-01-29T03:35:11.714Z,1040.75
2017-01-29T03:36:11.694Z,1040.69
2017-01-29T03:37:11.676Z,1040.68
2017-01-29T03:38:11.659Z,1040.67
2017-01-29T03:39:11.645Z,1040.7
2017-01-29T03:40:11.623Z,1040.69
2017-01-29T03:41:11.604Z,1040.74
2017-01-29T03:42:11.588Z,1040.71
2017-01-29T03:43:11.570Z,1040.71
2017-01-29T03:44:11.555Z,1040.7
2017-01-29T03:45:11.533Z,1040.72
2017-01-29T03:46:11.516Z,1040.73
2017-01-29T03:47:11.499Z,1040.71
2017-01-29T03:48:11.481Z,1040.7
2017-01-29T03:49:11.463Z,1040.71
2017-01-29T03:50:11.446Z,1040.69
2017-01-29T03:51:11.428Z,1040.71
2017-01-29T03:52:11.411Z,1040.67
2017-01-29T03:53:11.394Z,1040.67
2017-01-29T03:54:11.375Z,1040.64
2017-01-29T03:55:11.357Z,1040.62
2017-01-29T03:56:11.339Z,1040.6
2017-01-29T03:57:11.322Z,1040.57
2017-01-29T03:58:11.303Z,1040.59
2017-01-29T03:59:11.285Z,1040.6
2017-01-29T04:00:11.268Z,1040.59
2017-01-29T04:01:11.254Z,1040.6
2017-01-29T04:02:11.233Z,1040.61
2017-01-29T04:03:11.215Z,1040.59
2017-01-29T04:04:11.198Z,1040.64
2017-01-29T04:05:11.179Z,1040.62
2017-01-29T04:06:11.161Z,1040.68
2017-01-29T04:07:11.143Z,1040.69
2017-01-29T04:08:11.126Z,1040.71
2017-01-29T04:09:11.110Z,1040.72
2017-01-29T04:10:11.091Z,1040.78
2017-01-29T04:11:11.073Z,1040.7
2017-01-29T04:12:11.057Z,1040.75
2017-01-29T04:13:11.037Z,1040.75
2017-01-29T04:14:11.020Z,1040.76
2017-01-29T04:15:11.002Z,1040.79
2017-01-29T04:16:10.984Z,1040.8
2017-01-29T04:17:10.966Z,1040.89
2017-01-29T04:18:10.950Z,1040.85
2017-01-29T04:19:10.932Z,1040.91
2017-01-29T04:20:10.914Z,1040.92
2017-01-29T04:21:10.896Z,1040.94
2017-01-29T04:22:10.878Z,1040.93
2017-01-29T04:23:10.862Z,1040.97
2017-01-29T04:24:10.844Z,1041.02
2017-01-29T04:25:10.826Z,1041
2017-01-29T04:26:10.809Z,1040.99
2017-01-29T04:27:10.789Z,1041
2017-01-29T04:28:10.772Z,1040.98
2017-01-29T04:29:10.763Z,1040.99
2017-01-29T04:30:10.736Z,1041
2017-01-29T04:31:10.719Z,1041.04
2017-01-29T04:32:10.701Z,1041.01
2017-01-29T04:33:10.709Z,1041.03
2017-01-29T04:34:10.666Z,1041.02
2017-01-29T04:35:10.648Z,1041.05
2017-01-29T04:36:10.629Z,1041.04
2017-01-29T04:37:10.613Z,1041.08
2017-01-29T04:38:10.594Z,1041.05
2017-01-29T04:39:10.577Z,1041.06
2017-01-29T04:40:10.559Z,1041.1
2017-01-29T04:41:10.540Z,1041.06
2017-01-29T04:42:10.523Z,1041.05
2017-01-29T04:43:10.506Z,1041.05
2017-01-29T04:44:10.488Z,1041.01
2017-01-29T04:45:10.470Z,1041.04
2017-01-29T04:46:10.451Z,1041.02
2017-01-29T04:47:10.434Z,1040.98
2017-01-29T04:48:10.417Z,1040.99
2017-01-29T04:49:10.399Z,1041
2017-01-29T04:50:10.384Z,1040.94
2017-01-29T04:51:10.364Z,1040.95
2017-01-29T04:52:10.346Z,1040.97
2017-01-29T04:53:10.327Z,1041
2017-01-29T04:54:10.313Z,1040.97
2017-01-29T04:55:10.292Z,1040.98
2017-01-29T04:56:10.275Z,1041
2017-01-29T04:57:10.259Z,1040.98
2017-01-29T04:58:10.238Z,1040.99
2017-01-29T04:59:10.221Z,1040.99
2017-01-29T05:00:10.209Z,1041.03
2017-01-29T05:01:10.185Z,1041.03
2017-01-29T05:02:10.167Z,1041.01
2017-01-29T05:03:10.150Z,1041.06
2017-01-29T05:04:10.131Z,1041.03
2017-01-29T05:05:10.114Z,1041.09
2017-01-29T05:06:10.097Z,1041.05
2017-01-29T05:07:10.081Z,1041.08
2017-01-29T05:08:10.061Z,1041.07
2017-01-29T05:09:10.043Z,1041.11
2017-01-29T05:10:10.025Z,1041.09
2017-01-29T05:11:10.007Z,1041.11
2017-01-29T05:12:09.989Z,1041.12
2017-01-29T05:13:09.972Z,1041.12
2017-01-29T05:14:09.955Z,1041.13
2017-01-29T05:15:09.937Z,1041.13
2017-01-29T05:16:09.918Z,1041.17
2017-01-29T05:17:09.901Z,1041.18
2017-01-29T05:18:09.888Z,1041.19
2017-01-29T05:19:09.865Z,1041.18
2017-01-29T05:20:09.849Z,1041.21
2017-01-29T05:21:09.831Z,1041.17
2017-01-29T05:22:09.811Z,1041.21
2017-01-29T05:23:09.793Z,1041.2
2017-01-29T05:24:09.776Z,1041.22
2017-01-29T05:25:09.758Z,1041.17
2017-01-29T05:26:09.740Z,1041.17
2017-01-29T05:27:09.723Z,1041.16
2017-01-29T05:28:09.706Z,1041.18
2017-01-29T05:29:09.687Z,1041.15
2017-01-29T05:30:09.669Z,1041.12
2017-01-29T05:31:09.651Z,1041.14
2017-01-29T05:32:09.634Z,1041.12
2017-01-29T05:33:09.615Z,1041.18
2017-01-29T05:34:09.598Z,1041.23
2017-01-29T05:35:09.580Z,1041.25
2017-01-29T05:36:09.563Z,1041.23
2017-01-29T05:37:09.544Z,1041.24
2017-01-29T05:38:09.526Z,1041.26
2017-01-29T05:39:09.516Z,1041.27
2017-01-29T05:40:09.492Z,1041.28
2017-01-29T05:41:09.472Z,1041.29
2017-01-29T05:42:09.456Z,1041.27
2017-01-29T05:43:09.439Z,1041.26
2017-01-29T05:44:09.419Z,1041.26
2017-01-29T05:45:09.402Z,1041.27
2017-01-29T05:46:09.384Z,1041.36
2017-01-29T05:47:09.366Z,1041.33
2017-01-29T05:48:09.348Z,1041.34
2017-01-29T05:49:09.331Z,1041.35
2017-01-29T05:50:09.314Z,1041.4
2017-01-29T05:51:09.296Z,1041.4
2017-01-29T05:52:09.279Z,1041.43
2017-01-29T05:53:09.261Z,1041.38
2017-01-29T05:54:09.243Z,1041.35
2017-01-29T05:55:09.225Z,1041.41
2017-01-29T05:56:09.207Z,1041.36
2017-01-29T05:57:09.190Z,1041.4
2017-01-29T05:58:09.172Z,1041.43
2017-01-29T05:59:09.154Z,1041.41
2017-01-29T06:00:09.139Z,1041.44
2017-01-29T06:01:09.119Z,1041.39
2017-01-29T06:02:09.100Z,1041.45
2017-01-29T06:03:09.086Z,1041.46
2017-01-29T06:04:09.065Z,1041.46
2017-01-29T06:05:09.047Z,1041.48
2017-01-29T06:06:09.028Z,1041.56
2017-01-29T06:07:09.014Z,1041.58
2017-01-29T06:08:08.994Z,1041.55
2017-01-29T06:09:08.976Z,1041.55
2017-01-29T06:10:08.958Z,1041.59
2017-01-29T06:11:08.940Z,1041.61
2017-01-29T06:12:08.924Z,1041.6
2017-01-29T06:13:08.904Z,1041.64
2017-01-29T06:14:08.886Z,1041.66
2017-01-29T06:15:08.868Z,1041.68
2017-01-29T06:16:08.853Z,1041.7
2017-01-29T06:17:08.832Z,1041.72
2017-01-29T06:18:08.814Z,1041.72
2017-01-29T06:19:08.797Z,1041.77
2017-01-29T06:20:08.778Z,1041.82
2017-01-29T06:21:08.759Z,1041.81
2017-01-29T06:22:08.742Z,1041.79
2017-01-29T06:23:08.725Z,1041.76
2017-01-29T06:24:08.710Z,1041.77
2017-01-29T06:25:08.690Z,1041.78
2017-01-29T06:26:08.671Z,1041.81
2017-01-29T06:27:08.653Z,1041.81
2017-01-29T06:28:08.634Z,1041.82
2017-01-29T06:29:08.618Z,1041.78
2017-01-29T06:30:08.635Z,1041.82
2017-01-29T06:31:08.582Z,1041.83
2017-01-29T06:32:08.563Z,1041.83
2017-01-29T06:33:08.544Z,1041.85
2017-01-29T06:34:08.528Z,1041.78
2017-01-29T06:35:08.508Z,1041.84
2017-01-29T06:36:08.491Z,1041.82
2017-01-29T06:37:08.472Z,1041.83
2017-01-29T06:38:08.457Z,1041.79
2017-01-29T06:39:08.437Z,1041.84
2017-01-29T06:40:08.418Z,1041.83
2017-01-29T06:41:08.401Z,1041.84
2017-01-29T06:42:08.384Z,1041.81
2017-01-29T06:43:08.365Z,1041.86
2017-01-29T06:44:08.347Z,1041.84
2017-01-29T06:45:08.329Z,1041.8
2017-01-29T06:46:08.311Z,1041.82
2017-01-29T06:47:08.299Z,1041.83
2017-01-29T06:48:08.276Z,1041.8
2017-01-29T06:49:08.257Z,1041.84
2017-01-29T06:50:08.237Z,1041.84
2017-01-29T06:51:08.221Z,1041.8
2017-01-29T06:52:08.202Z,1041.86
2017-01-29T06:53:08.185Z,1041.8
2017-01-29T06:54:08.165Z,1041.79
2017-01-29T06:55:08.148Z,1041.8
2017-01-29T06:56:08.131Z,1041.77
2017-01-29T06:57:08.111Z,1041.78
2017-01-29T06:58:08.093Z,1041.78
2017-01-29T06:59:08.077Z,1041.77
2017-01-29T07:00:08.058Z,1041.79
2017-01-29T07:01:08.041Z,1041.79
2017-01-29T07:02:08.048Z,1041.79
2017-01-29T07:03:08.004Z,1041.74
2017-01-29T07:04:07.988Z,1041.76
2017-01-29T07:05:07.968Z,1041.74
2017-01-29T07:06:07.950Z,1041.71
2017-01-29T07:07:07.932Z,1041.71
2017-01-29T07:08:07.914Z,1041.71
2017-01-29T07:09:07.898Z,1041.7
2017-01-29T07:10:07.878Z,1041.65
2017-01-29T07:11:07.862Z,1041.68
2017-01-29T07:12:07.843Z,1041.65
2017-01-29T07:13:07.832Z,1041.62
2017-01-29T07:14:07.822Z,1041.61
2017-01-29T07:15:07.791Z,1041.58
2017-01-29T07:16:07.771Z,1041.62
2017-01-29T07:17:07.755Z,1041.64
2017-01-29T07:18:07.737Z,1041.6
2017-01-29T07:19:07.717Z,1041.58
2017-01-29T07:20:07.702Z,1041.56
2017-01-29T07:21:07.685Z,1041.55
2017-01-29T07:22:07.667Z,1041.53
2017-01-29T07:23:07.649Z,1041.47
2017-01-29T07:24:07.630Z,1041.44
2017-01-29T07:25:07.615Z,1041.41
2017-01-29T07:26:07.605Z,1041.3
2017-01-29T07:27:07.582Z,1041.24
2017-01-29T07:28:07.561Z,1041.12
2017-01-29T07:29:07.545Z,1041.08
2017-01-29T07:30:07.528Z,1041
2017-01-29T07:31:07.509Z,1040.93
2017-01-29T07:32:07.500Z,1040.86
2017-01-29T07:33:07.478Z,1040.8
2017-01-29T07:34:07.459Z,1040.76
2017-01-29T07:35:07.441Z,1040.76
2017-01-29T07:36:07.424Z,1040.74
2017-01-29T07:37:07.406Z,1040.75
2017-01-29T07:38:07.389Z,1040.82
2017-01-29T07:39:07.374Z,1040.82
2017-01-29T07:40:07.356Z,1040.9
2017-01-29T07:41:07.338Z,1040.96
2017-01-29T07:42:07.322Z,1040.95
2017-01-29T07:43:07.305Z,1040.96
2017-01-29T07:44:07.287Z,1040.97
2017-01-29T07:45:07.271Z,1040.97
2017-01-29T07:46:07.254Z,1041.01
2017-01-29T07:47:07.238Z,1040.93
2017-01-29T07:48:07.220Z,1040.91
2017-01-29T07:49:07.204Z,1040.88
2017-01-29T07:50:07.186Z,1040.86
2017-01-29T07:51:07.171Z,1040.83
2017-01-29T07:52:07.152Z,1040.79
2017-01-29T07:53:07.136Z,1040.73
2017-01-29T07:54:07.121Z,1040.71
2017-01-29T07:55:07.103Z,1040.74
2017-01-29T07:56:07.086Z,1040.69
2017-01-29T07:57:07.070Z,1040.69
2017-01-29T07:58:07.053Z,1040.68
2017-01-29T07:59:07.043Z,1040.64
2017-01-29T08:00:07.021Z,1040.66
2017-01-29T08:01:07.003Z,1040.63
2017-01-29T08:02:06.986Z,1040.61
2017-01-29T08:03:06.970Z,1040.57
2017-01-29T08:04:06.953Z,1040.59
2017-01-29T08:05:06.937Z,1040.57
2017-01-29T08:06:06.920Z,1040.56
2017-01-29T08:07:06.904Z,1040.54
2017-01-29T08:08:06.887Z,1040.54
2017-01-29T08:09:06.870Z,1040.53
2017-01-29T08:10:06.853Z,1040.48
2017-01-29T08:11:06.837Z,1040.46
2017-01-29T08:12:06.821Z,1040.42
2017-01-29T08:13:06.804Z,1040.37
2017-01-29T08:14:06.787Z,1040.35
2017-01-29T08:15:06.770Z,1040.36
2017-01-29T08:16:06.752Z,1040.35
2017-01-29T08:17:06.740Z,1040.28
2017-01-29T08:18:06.721Z,1040.26
2017-01-29T08:19:06.704Z,1040.24
2017-01-29T08:20:06.689Z,1040.23
2017-01-29T08:21:06.673Z,1040.16
2017-01-29T08:22:06.658Z,1040.1
2017-01-29T08:23:06.640Z,1040.11
2017-01-29T08:24:06.624Z,1040.1
2017-01-29T08:25:06.607Z,1040.07
2017-01-29T08:26:06.591Z,1040.04
2017-01-29T08:27:06.575Z,1039.99
2017-01-29T08:28:06.559Z,1039.96
2017-01-29T08:29:06.543Z,1039.9
2017-01-29T08:30:06.526Z,1039.87
2017-01-29T08:31:06.512Z,1039.89
2017-01-29T08:32:06.495Z,1039.85
2017-01-29T08:33:06.478Z,1039.84
2017-01-29T08:34:06.463Z,1039.77
2017-01-29T08:35:06.446Z,1039.77
2017-01-29T08:36:06.431Z,1039.73
2017-01-29T08:37:06.414Z,1039.71
2017-01-29T08:38:06.401Z,1039.68
2017-01-29T08:39:06.384Z,1039.66
2017-01-29T08:40:06.367Z,1039.65
2017-01-29T08:41:06.352Z,1039.56
2017-01-29T08:42:06.339Z,1039.55
2017-01-29T08:43:06.321Z,1039.47
2017-01-29T08:44:06.307Z,1039.45
2017-01-29T08:45:06.287Z,1039.43
2017-01-29T08:46:06.273Z,1039.4
2017-01-29T08:47:06.257Z,1039.42
2017-01-29T08:48:06.243Z,1039.41
2017-01-29T08:49:06.227Z,1039.37
2017-01-29T08:50:06.212Z,1039.38
2017-01-29T08:51:06.196Z,1039.35
2017-01-29T08:52:06.181Z,1039.35
2017-01-29T08:53:06.165Z,1039.37
2017-01-29T08:54:06.150Z,1039.34
2017-01-29T08:55:06.134Z,1039.34
2017-01-29T08:56:06.119Z,1039.32
2017-01-29T08:57:06.104Z,1039.29
2017-01-29T08:58:06.087Z,1039.26
2017-01-29T08:59:06.073Z,1039.24
2017-01-29T09:00:06.056Z,1039.25
2017-01-29T09:01:06.044Z,1039.26
2017-01-29T09:02:06.028Z,1039.23
2017-01-29T09:03:06.013Z,1039.22
2017-01-29T09:04:05.998Z,1039.2
2017-01-29T09:05:05.983Z,1039.14
2017-01-29T09:06:05.968Z,1039.15
2017-01-29T09:07:05.953Z,1039.12
2017-01-29T09:08:05.939Z,1039.12
2017-01-29T09:09:05.921Z,1039.13
2017-01-29T09:10:05.906Z,1039.11
2017-01-29T09:11:05.895Z,1039.06
2017-01-29T09:12:05.901Z,1039.02
2017-01-29T09:13:05.862Z,1039.01
2017-01-29T09:14:05.847Z,1038.97
2017-01-29T09:15:05.832Z,1038.93
2017-01-29T09:16:05.817Z,1038.92
2017-01-29T09:17:05.802Z,1038.89
2017-01-29T09:18:05.787Z,1038.92
2017-01-29T09:19:05.773Z,1038.89
2017-01-29T09:20:05.757Z,1038.81
2017-01-29T09:21:05.750Z,1038.79
2017-01-29T09:22:05.728Z,1038.81
2017-01-29T09:23:05.714Z,1038.78
2017-01-29T09:24:05.699Z,1038.75
2017-01-29T09:25:05.684Z,1038.72
2017-01-29T09:26:05.670Z,1038.69
2017-01-29T09:27:05.655Z,1038.62
2017-01-29T09:28:05.643Z,1038.64
2017-01-29T09:29:05.627Z,1038.6
2017-01-29T09:30:05.614Z,1038.56
2017-01-29T09:31:05.598Z,1038.54
2017-01-29T09:32:05.585Z,1038.52
2017-01-29T09:33:05.570Z,1038.53
2017-01-29T09:34:05.553Z,1038.46
2017-01-29T09:35:05.541Z,1038.45
2017-01-29T09:36:05.527Z,1038.39
2017-01-29T09:37:05.515Z,1038.41
2017-01-29T09:38:05.498Z,1038.38
2017-01-29T09:39:05.483Z,1038.34
2017-01-29T09:40:05.469Z,1038.35
2017-01-29T09:41:05.456Z,1038.33
2017-01-29T09:42:05.445Z,1038.29
2017-01-29T09:43:05.428Z,1038.23
2017-01-29T09:44:05.415Z,1038.23
2017-01-29T09:45:05.399Z,1038.21
2017-01-29T09:46:05.385Z,1038.2
2017-01-29T09:47:05.370Z,1038.18
2017-01-29T09:48:05.357Z,1038.13
2017-01-29T09:49:05.343Z,1038.12
2017-01-29T09:50:05.330Z,1038.12
2017-01-29T09:51:05.316Z,1038.1
2017-01-29T09:52:05.301Z,1038.05
2017-01-29T09:53:05.292Z,1038.05
2017-01-29T09:54:05.274Z,1037.96
2017-01-29T09:55:05.260Z,1037.97
2017-01-29T09:56:05.248Z,1037.9
2017-01-29T09:57:05.232Z,1037.87
2017-01-29T09:58:05.221Z,1037.85
2017-01-29T09:59:05.207Z,1037.81
2017-01-29T10:00:05.191Z,1037.79
2017-01-29T10:01:05.181Z,1037.78
2017-01-29T10:02:05.166Z,1037.73
2017-01-29T10:03:05.152Z,1037.71
2017-01-29T10:04:05.137Z,1037.68
2017-01-29T10:05:05.128Z,1037.65
2017-01-29T10:06:05.113Z,1037.61
2017-01-29T10:07:05.098Z,1037.61
2017-01-29T10:08:05.085Z,1037.53
2017-01-29T10:09:05.071Z,1037.47
2017-01-29T10:10:05.059Z,1037.45
2017-01-29T10:11:05.072Z,1037.43
2017-01-29T10:12:05.031Z,1037.38
2017-01-29T10:13:05.019Z,1037.36
2017-01-29T10:14:05.006Z,1037.31
2017-01-29T10:15:04.995Z,1037.32
2017-01-29T10:16:04.982Z,1037.26
2017-01-29T10:17:04.969Z,1037.24
2017-01-29T10:18:04.952Z,1037.18
2017-01-29T10:19:04.940Z,1037.15
2017-01-29T10:20:04.927Z,1037.08
2017-01-29T10:21:04.915Z,1037.1
2017-01-29T10:22:04.901Z,1037.07
2017-01-29T10:23:04.887Z,1037.02
2017-01-29T10:24:04.875Z,1036.98
2017-01-29T10:25:04.863Z,1036.97
2017-01-29T10:26:04.848Z,1036.96
2017-01-29T10:27:04.837Z,1036.95
2017-01-29T10:28:04.824Z,1036.96
2017-01-29T10:29:04.810Z,1036.97
2017-01-29T10:30:04.799Z,1036.95
2017-01-29T10:31:04.786Z,1036.9
2017-01-29T10:32:04.773Z,1036.91
2017-01-29T10:33:04.760Z,1036.9
2017-01-29T10:34:04.747Z,1036.9
2017-01-29T10:35:04.736Z,1036.81
2017-01-29T10:36:04.723Z,1036.8
2017-01-29T10:37:04.711Z,1036.71
2017-01-29T10:38:04.700Z,1036.67
2017-01-29T10:39:04.688Z,1036.59
2017-01-29T10:40:04.679Z,1036.52
2017-01-29T10:41:04.661Z,1036.49
2017-01-29T10:42:04.650Z,1036.45
2017-01-29T10:43:04.638Z,1036.43
2017-01-29T10:44:04.625Z,1036.42
2017-01-29T10:45:04.614Z,1036.38
2017-01-29T10:46:04.601Z,1036.35
2017-01-29T10:47:04.587Z,1036.36
2017-01-29T10:48:04.576Z,1036.33
2017-01-29T10:49:04.564Z,1036.29
2017-01-29T10:50:04.555Z,1036.26
2017-01-29T10:51:04.540Z,1036.24
2017-01-29T10:52:04.533Z,1036.27
2017-01-29T10:53:04.522Z,1036.18
2017-01-29T10:54:04.505Z,1036.2
2017-01-29T10:55:04.493Z,1036.14
2017-01-29T10:56:04.482Z,1036.07
2017-01-29T10:57:04.469Z,1036.01
2017-01-29T10:58:04.457Z,1036
2017-01-29T10:59:04.445Z,1035.97
2017-01-29T11:00:04.434Z,1035.93
2017-01-29T11:01:04.423Z,1035.87
2017-01-29T11:02:04.410Z,1035.87
2017-01-29T11:03:04.399Z,1035.82
2017-01-29T11:04:04.386Z,1035.81
2017-01-29T11:05:04.376Z,1035.75
2017-01-29T11:06:04.363Z,1035.76
2017-01-29T11:07:04.353Z,1035.69
2017-01-29T11:08:04.342Z,1035.68
2017-01-29T11:09:04.330Z,1035.64
2017-01-29T11:10:04.317Z,1035.6
2017-01-29T11:11:04.312Z,1035.55
2017-01-29T11:12:04.295Z,1035.5
2017-01-29T11:13:04.283Z,1035.46
2017-01-29T11:14:04.273Z,1035.43
2017-01-29T11:15:04.266Z,1035.44
2017-01-29T11:16:04.251Z,1035.41
2017-01-29T11:17:04.243Z,1035.35
2017-01-29T11:18:04.227Z,1035.3
2017-01-29T11:19:04.217Z,1035.27
2017-01-29T11:20:04.206Z,1035.26
2017-01-29T11:21:04.199Z,1035.32
2017-01-29T11:22:04.188Z,1035.28
2017-01-29T11:23:04.176Z,1035.3
2017-01-29T11:24:04.166Z,1035.28
2017-01-29T11:25:04.155Z,1035.25
2017-01-29T11:26:04.139Z,1035.26
2017-01-29T11:27:04.130Z,1035.29
2017-01-29T11:28:04.120Z,1035.3
2017-01-29T11:29:04.112Z,1035.3
2017-01-29T11:30:04.121Z,1035.28
2017-01-29T11:31:04.085Z,1035.24
2017-01-29T11:32:04.073Z,1035.2
2017-01-29T11:33:04.062Z,1035.16
2017-01-29T11:34:04.052Z,1035.14
2017-01-29T11:35:04.047Z,1035.07
2017-01-29T11:36:04.037Z,1035.08
2017-01-29T11:37:04.025Z,1035.03
2017-01-29T11:38:04.010Z,1035.07
2017-01-29T11:39:03.999Z,1035.06
2017-01-29T11:40:03.989Z,1035.06
2017-01-29T11:41:03.979Z,1035.02
2017-01-29T11:42:03.968Z,1035.04
2017-01-29T11:43:03.956Z,1034.97
2017-01-29T11:44:03.946Z,1034.92
2017-01-29T11:45:03.935Z,1034.9
2017-01-29T11:46:03.925Z,1034.9
2017-01-29T11:47:03.915Z,1034.89
2017-01-29T11:48:03.904Z,1034.84
2017-01-29T11:49:03.895Z,1034.78
2017-01-29T11:50:03.882Z,1034.82
2017-01-29T11:51:03.874Z,1034.77
2017-01-29T11:52:03.863Z,1034.78
2017-01-29T11:53:03.852Z,1034.76
2017-01-29T11:54:03.842Z,1034.72
2017-01-29T11:55:03.831Z,1034.67
2017-01-29T11:56:03.821Z,1034.64
2017-01-29T11:57:03.812Z,1034.64
2017-01-29T11:58:03.810Z,1034.62
2017-01-29T11:59:03.790Z,1034.6
2017-01-29T12:00:03.781Z,1034.58
2017-01-29T12:01:03.770Z,1034.51
2017-01-29T12:02:03.763Z,1034.51
2017-01-29T12:03:03.749Z,1034.52
2017-01-29T12:04:03.739Z,1034.52
2017-01-29T12:05:03.729Z,1034.51
2017-01-29T12:06:03.719Z,1034.48
2017-01-29T12:07:03.709Z,1034.41
2017-01-29T12:08:03.698Z,1034.41